sensor_id;sensor_type;location;lat;lon;timestamp;temperature;humidity
32476;DHT22;18929;48.008;10.882;2023-07-13T00:02:21;22.50;99.90
32476;DHT22;18929;48.008;10.882;2023-07-13T00:04:49;22.70;99.90
32476;DHT22;18929;48.008;10.882;2023-07-13T00:07:16;22.80;99.90
32476;DHT22;18929;48.008;10.882;2023-07-13T00:09:45;22.90;99.90
32476;DHT22;18929;48.008;10.882;2023-07-13T00:12:21;23.00;99.90
32476;DHT22;18929;48.008;10.882;2023-07-13T00:14:50;22.90;99.90
32476;DHT22;18929;48.008;10.882;2023-07-13T00:17:17;23.00;99.90
32476;DHT22;18929;48.008;10.882;2023-07-13T00:19:45;22.90;99.90
32476;DHT22;18929;48.008;10.882;2023-07-13T00:22:12;22.90;99.90
32476;DHT22;18929;48.008;10.882;2023-07-13T00:24:39;22.90;99.90
32476;DHT22;18929;48.008;10.882;2023-07-13T00:27:07;22.80;99.90
32476;DHT22;18929;48.008;10.882;2023-07-13T00:29:35;22.60;99.90
32476;DHT22;18929;48.008;10.882;2023-07-13T00:32:04;22.80;99.90
32476;DHT22;18929;48.008;10.882;2023-07-13T00:34:31;23.00;99.90
32476;DHT22;18929;48.008;10.882;2023-07-13T00:36:59;22.90;99.90
32476;DHT22;18929;48.008;10.882;2023-07-13T00:39:26;22.90;99.90
32476;DHT22;18929;48.008;10.882;2023-07-13T00:41:54;22.90;99.90
32476;DHT22;18929;48.008;10.882;2023-07-13T00:44:21;22.90;99.90
32476;DHT22;18929;48.008;10.882;2023-07-13T00:46:49;22.90;99.90
32476;DHT22;18929;48.008;10.882;2023-07-13T00:49:20;22.70;99.90
32476;DHT22;18929;48.008;10.882;2023-07-13T00:51:49;22.60;99.90
32476;DHT22;18929;48.008;10.882;2023-07-13T00:54:18;22.70;99.90
32476;DHT22;18929;48.008;10.882;2023-07-13T00:56:47;22.70;99.90
32476;DHT22;18929;48.008;10.882;2023-07-13T00:59:15;22.70;99.90
32476;DHT22;18929;48.008;10.882;2023-07-13T01:01:43;22.50;99.90
32476;DHT22;18929;48.008;10.882;2023-07-13T01:04:10;22.70;99.90
32476;DHT22;18929;48.008;10.882;2023-07-13T01:06:41;22.70;99.90
32476;DHT22;18929;48.008;10.882;2023-07-13T01:09:09;22.80;99.90
32476;DHT22;18929;48.008;10.882;2023-07-13T01:11:37;22.80;99.90
32476;DHT22;18929;48.008;10.882;2023-07-13T01:14:04;22.20;99.90
32476;DHT22;18929;48.008;10.882;2023-07-13T01:16:32;22.50;99.90
32476;DHT22;18929;48.008;10.882;2023-07-13T01:18:59;22.10;99.90
32476;DHT22;18929;48.008;10.882;2023-07-13T01:21:29;22.40;99.90
32476;DHT22;18929;48.008;10.882;2023-07-13T01:23:56;22.50;99.90
32476;DHT22;18929;48.008;10.882;2023-07-13T01:26:24;22.40;99.90
32476;DHT22;18929;48.008;10.882;2023-07-13T01:28:51;22.20;99.90
32476;DHT22;18929;48.008;10.882;2023-07-13T01:31:19;22.10;99.90
32476;DHT22;18929;48.008;10.882;2023-07-13T01:33:46;22.40;99.90
32476;DHT22;18929;48.008;10.882;2023-07-13T01:36:13;22.60;99.90
32476;DHT22;18929;48.008;10.882;2023-07-13T01:38:41;22.60;99.90
32476;DHT22;18929;48.008;10.882;2023-07-13T01:41:09;22.60;99.90
32476;DHT22;18929;48.008;10.882;2023-07-13T01:43:36;22.60;99.90
32476;DHT22;18929;48.008;10.882;2023-07-13T01:46:03;22.70;99.90
32476;DHT22;18929;48.008;10.882;2023-07-13T01:48:30;22.60;99.90
32476;DHT22;18929;48.008;10.882;2023-07-13T01:50:57;22.50;99.90
32476;DHT22;18929;48.008;10.882;2023-07-13T01:53:24;22.40;99.90
32476;DHT22;18929;48.008;10.882;2023-07-13T01:55:53;22.30;99.90
32476;DHT22;18929;48.008;10.882;2023-07-13T01:58:20;22.20;99.90
32476;DHT22;18929;48.008;10.882;2023-07-13T02:00:48;22.20;99.90
32476;DHT22;18929;48.008;10.882;2023-07-13T02:03:15;22.20;99.90
32476;DHT22;18929;48.008;10.882;2023-07-13T02:05:43;21.80;99.90
32476;DHT22;18929;48.008;10.882;2023-07-13T02:08:11;21.70;99.90
32476;DHT22;18929;48.008;10.882;2023-07-13T02:10:38;21.80;99.90
32476;DHT22;18929;48.008;10.882;2023-07-13T02:13:07;20.70;99.90
32476;DHT22;18929;48.008;10.882;2023-07-13T02:15:34;21.20;99.90
32476;DHT22;18929;48.008;10.882;2023-07-13T02:18:01;21.30;99.90
32476;DHT22;18929;48.008;10.882;2023-07-13T02:20:29;21.10;99.90
32476;DHT22;18929;48.008;10.882;2023-07-13T02:22:56;21.30;99.90
32476;DHT22;18929;48.008;10.882;2023-07-13T02:25:23;20.90;99.90
32476;DHT22;18929;48.008;10.882;2023-07-13T02:27:52;20.50;99.90
32476;DHT22;18929;48.008;10.882;2023-07-13T02:30:22;20.80;99.90
32476;DHT22;18929;48.008;10.882;2023-07-13T02:32:50;20.70;99.90
32476;DHT22;18929;48.008;10.882;2023-07-13T02:35:17;21.00;99.90
32476;DHT22;18929;48.008;10.882;2023-07-13T02:37:44;21.00;99.90
32476;DHT22;18929;48.008;10.882;2023-07-13T02:40:11;21.00;99.90
32476;DHT22;18929;48.008;10.882;2023-07-13T02:42:39;21.20;99.90
32476;DHT22;18929;48.008;10.882;2023-07-13T02:45:06;21.10;99.90
32476;DHT22;18929;48.008;10.882;2023-07-13T02:47:35;21.20;99.90
32476;DHT22;18929;48.008;10.882;2023-07-13T02:50:02;20.50;99.90
32476;DHT22;18929;48.008;10.882;2023-07-13T02:52:29;20.50;99.90
32476;DHT22;18929;48.008;10.882;2023-07-13T02:54:56;20.70;99.90
32476;DHT22;18929;48.008;10.882;2023-07-13T02:57:23;21.10;99.90
32476;DHT22;18929;48.008;10.882;2023-07-13T02:59:50;21.30;99.90
32476;DHT22;18929;48.008;10.882;2023-07-13T03:02:17;20.50;99.90
32476;DHT22;18929;48.008;10.882;2023-07-13T03:04:46;21.10;99.90
32476;DHT22;18929;48.008;10.882;2023-07-13T03:07:13;20.30;99.90
32476;DHT22;18929;48.008;10.882;2023-07-13T03:09:41;20.60;99.90
32476;DHT22;18929;48.008;10.882;2023-07-13T03:12:08;20.30;99.90
32476;DHT22;18929;48.008;10.882;2023-07-13T03:14:35;20.70;99.90
32476;DHT22;18929;48.008;10.882;2023-07-13T03:17:02;20.60;99.90
32476;DHT22;18929;48.008;10.882;2023-07-13T03:19:29;21.10;99.90
32476;DHT22;18929;48.008;10.882;2023-07-13T03:21:58;21.20;99.90
32476;DHT22;18929;48.008;10.882;2023-07-13T03:24:25;21.00;99.90
32476;DHT22;18929;48.008;10.882;2023-07-13T03:26:52;21.20;99.90
32476;DHT22;18929;48.008;10.882;2023-07-13T03:29:19;21.10;99.90
32476;DHT22;18929;48.008;10.882;2023-07-13T03:31:46;21.30;99.90
32476;DHT22;18929;48.008;10.882;2023-07-13T03:34:14;21.40;99.90
32476;DHT22;18929;48.008;10.882;2023-07-13T03:36:41;21.50;99.90
32476;DHT22;18929;48.008;10.882;2023-07-13T03:39:09;21.70;99.90
32476;DHT22;18929;48.008;10.882;2023-07-13T03:41:37;21.70;99.90
32476;DHT22;18929;48.008;10.882;2023-07-13T03:44:04;21.80;99.90
32476;DHT22;18929;48.008;10.882;2023-07-13T03:46:31;21.80;99.90
32476;DHT22;18929;48.008;10.882;2023-07-13T03:48:59;21.90;99.90
32476;DHT22;18929;48.008;10.882;2023-07-13T03:51:26;21.80;99.90
32476;DHT22;18929;48.008;10.882;2023-07-13T03:53:53;21.60;99.90
32476;DHT22;18929;48.008;10.882;2023-07-13T03:56:22;21.60;99.90
32476;DHT22;18929;48.008;10.882;2023-07-13T03:58:49;21.50;99.90
32476;DHT22;18929;48.008;10.882;2023-07-13T04:01:18;21.40;99.90
32476;DHT22;18929;48.008;10.882;2023-07-13T04:03:45;21.40;99.90
32476;DHT22;18929;48.008;10.882;2023-07-13T04:06:14;21.50;99.90
32476;DHT22;18929;48.008;10.882;2023-07-13T04:08:47;21.50;99.90
32476;DHT22;18929;48.008;10.882;2023-07-13T04:11:14;21.40;99.90
32476;DHT22;18929;48.008;10.882;2023-07-13T04:13:43;21.30;99.90
32476;DHT22;18929;48.008;10.882;2023-07-13T04:16:10;21.30;99.90
32476;DHT22;18929;48.008;10.882;2023-07-13T04:18:37;21.40;99.90
32476;DHT22;18929;48.008;10.882;2023-07-13T04:21:04;21.40;99.90
32476;DHT22;18929;48.008;10.882;2023-07-13T04:23:31;21.50;99.90
32476;DHT22;18929;48.008;10.882;2023-07-13T04:25:59;21.50;99.90
32476;DHT22;18929;48.008;10.882;2023-07-13T04:28:26;21.50;99.90
32476;DHT22;18929;48.008;10.882;2023-07-13T04:30:54;21.40;99.90
32476;DHT22;18929;48.008;10.882;2023-07-13T04:33:22;21.40;99.90
32476;DHT22;18929;48.008;10.882;2023-07-13T04:35:50;21.30;99.90
32476;DHT22;18929;48.008;10.882;2023-07-13T04:38:20;21.30;99.90
32476;DHT22;18929;48.008;10.882;2023-07-13T04:40:47;21.30;99.90
32476;DHT22;18929;48.008;10.882;2023-07-13T04:43:14;21.30;99.90
32476;DHT22;18929;48.008;10.882;2023-07-13T04:45:42;21.40;99.90
32476;DHT22;18929;48.008;10.882;2023-07-13T04:48:11;21.40;99.90
32476;DHT22;18929;48.008;10.882;2023-07-13T04:50:38;21.30;99.90
32476;DHT22;18929;48.008;10.882;2023-07-13T04:53:05;21.50;99.90
32476;DHT22;18929;48.008;10.882;2023-07-13T04:55:33;21.50;99.90
32476;DHT22;18929;48.008;10.882;2023-07-13T04:58:00;21.60;99.90
32476;DHT22;18929;48.008;10.882;2023-07-13T05:00:28;21.60;99.90
32476;DHT22;18929;48.008;10.882;2023-07-13T05:02:55;21.40;99.90
32476;DHT22;18929;48.008;10.882;2023-07-13T05:05:24;21.20;99.90
32476;DHT22;18929;48.008;10.882;2023-07-13T05:07:52;21.10;99.90
32476;DHT22;18929;48.008;10.882;2023-07-13T05:10:19;21.00;99.90
32476;DHT22;18929;48.008;10.882;2023-07-13T05:12:46;21.10;99.90
32476;DHT22;18929;48.008;10.882;2023-07-13T05:15:14;21.20;99.90
32476;DHT22;18929;48.008;10.882;2023-07-13T05:17:41;21.20;99.90
32476;DHT22;18929;48.008;10.882;2023-07-13T05:20:09;21.30;99.90
32476;DHT22;18929;48.008;10.882;2023-07-13T05:22:38;21.30;99.90
32476;DHT22;18929;48.008;10.882;2023-07-13T05:25:06;21.20;99.90
32476;DHT22;18929;48.008;10.882;2023-07-13T05:27:33;21.20;99.90
32476;DHT22;18929;48.008;10.882;2023-07-13T05:30:00;21.00;99.90
32476;DHT22;18929;48.008;10.882;2023-07-13T05:32:27;20.50;99.90
32476;DHT22;18929;48.008;10.882;2023-07-13T05:34:54;21.00;99.90
32476;DHT22;18929;48.008;10.882;2023-07-13T05:37:21;21.10;99.90
32476;DHT22;18929;48.008;10.882;2023-07-13T05:39:50;21.00;99.90
32476;DHT22;18929;48.008;10.882;2023-07-13T05:42:17;20.90;99.90
32476;DHT22;18929;48.008;10.882;2023-07-13T05:44:44;20.70;99.90
32476;DHT22;18929;48.008;10.882;2023-07-13T05:47:12;20.80;99.90
32476;DHT22;18929;48.008;10.882;2023-07-13T05:49:39;20.90;99.90
32476;DHT22;18929;48.008;10.882;2023-07-13T05:52:07;21.20;99.90
32476;DHT22;18929;48.008;10.882;2023-07-13T05:54:34;21.00;99.90
32476;DHT22;18929;48.008;10.882;2023-07-13T05:57:02;20.70;99.90
32476;DHT22;18929;48.008;10.882;2023-07-13T05:59:39;20.70;99.90
32476;DHT22;18929;48.008;10.882;2023-07-13T06:02:08;21.00;99.90
32476;DHT22;18929;48.008;10.882;2023-07-13T06:04:35;21.00;99.90
32476;DHT22;18929;48.008;10.882;2023-07-13T06:07:03;20.80;99.90
32476;DHT22;18929;48.008;10.882;2023-07-13T06:09:30;21.10;99.90
32476;DHT22;18929;48.008;10.882;2023-07-13T06:11:57;20.90;99.90
32476;DHT22;18929;48.008;10.882;2023-07-13T06:14:26;20.80;99.90
32476;DHT22;18929;48.008;10.882;2023-07-13T06:16:53;20.70;99.90
32476;DHT22;18929;48.008;10.882;2023-07-13T06:19:20;20.30;99.90
32476;DHT22;18929;48.008;10.882;2023-07-13T06:21:47;19.80;99.90
32476;DHT22;18929;48.008;10.882;2023-07-13T06:24:14;19.60;99.90
32476;DHT22;18929;48.008;10.882;2023-07-13T06:26:41;19.20;99.90
32476;DHT22;18929;48.008;10.882;2023-07-13T06:29:08;19.70;99.90
32476;DHT22;18929;48.008;10.882;2023-07-13T06:31:36;19.10;99.90
32476;DHT22;18929;48.008;10.882;2023-07-13T06:34:03;19.50;99.90
32476;DHT22;18929;48.008;10.882;2023-07-13T06:36:31;20.10;99.90
32476;DHT22;18929;48.008;10.882;2023-07-13T06:38:58;20.50;99.90
32476;DHT22;18929;48.008;10.882;2023-07-13T06:41:25;20.60;99.90
32476;DHT22;18929;48.008;10.882;2023-07-13T06:43:52;20.70;99.90
32476;DHT22;18929;48.008;10.882;2023-07-13T06:46:19;20.70;99.90
32476;DHT22;18929;48.008;10.882;2023-07-13T06:48:48;20.60;99.90
32476;DHT22;18929;48.008;10.882;2023-07-13T06:51:15;20.60;99.90
32476;DHT22;18929;48.008;10.882;2023-07-13T06:53:44;20.60;99.90
32476;DHT22;18929;48.008;10.882;2023-07-13T06:56:12;20.20;99.90
32476;DHT22;18929;48.008;10.882;2023-07-13T06:58:42;20.50;99.90
32476;DHT22;18929;48.008;10.882;2023-07-13T07:01:11;20.50;99.90
32476;DHT22;18929;48.008;10.882;2023-07-13T07:03:40;20.40;99.90
32476;DHT22;18929;48.008;10.882;2023-07-13T07:06:11;20.60;99.90
32476;DHT22;18929;48.008;10.882;2023-07-13T07:08:39;20.70;99.90
32476;DHT22;18929;48.008;10.882;2023-07-13T07:11:08;20.70;99.90
32476;DHT22;18929;48.008;10.882;2023-07-13T07:13:35;20.80;99.90
32476;DHT22;18929;48.008;10.882;2023-07-13T07:16:02;20.80;99.90
32476;DHT22;18929;48.008;10.882;2023-07-13T07:18:29;20.20;99.90
32476;DHT22;18929;48.008;10.882;2023-07-13T07:20:58;19.80;99.90
32476;DHT22;18929;48.008;10.882;2023-07-13T07:23:27;20.40;99.90
32476;DHT22;18929;48.008;10.882;2023-07-13T07:25:54;20.30;99.90
32476;DHT22;18929;48.008;10.882;2023-07-13T07:30:54;20.70;99.90
32476;DHT22;18929;48.008;10.882;2023-07-13T07:33:22;20.70;99.90
32476;DHT22;18929;48.008;10.882;2023-07-13T07:35:49;20.70;99.90
32476;DHT22;18929;48.008;10.882;2023-07-13T07:38:17;20.80;99.90
32476;DHT22;18929;48.008;10.882;2023-07-13T07:40:45;21.10;99.90
32476;DHT22;18929;48.008;10.882;2023-07-13T07:45:44;21.30;99.90
32476;DHT22;18929;48.008;10.882;2023-07-13T07:48:11;21.10;99.90
32476;DHT22;18929;48.008;10.882;2023-07-13T07:50:38;21.00;99.90
32476;DHT22;18929;48.008;10.882;2023-07-13T07:53:05;20.90;99.90
32476;DHT22;18929;48.008;10.882;2023-07-13T07:55:36;20.90;99.90
32476;DHT22;18929;48.008;10.882;2023-07-13T07:58:04;21.00;99.90
32476;DHT22;18929;48.008;10.882;2023-07-13T08:00:32;20.80;99.90
32476;DHT22;18929;48.008;10.882;2023-07-13T08:03:01;20.80;99.90
32476;DHT22;18929;48.008;10.882;2023-07-13T08:05:28;21.00;99.90
32476;DHT22;18929;48.008;10.882;2023-07-13T08:07:55;21.00;99.90
32476;DHT22;18929;48.008;10.882;2023-07-13T08:10:23;20.80;99.90
32476;DHT22;18929;48.008;10.882;2023-07-13T08:12:51;20.70;99.90
32476;DHT22;18929;48.008;10.882;2023-07-13T08:15:19;20.70;99.90
32476;DHT22;18929;48.008;10.882;2023-07-13T08:17:47;20.80;99.90
32476;DHT22;18929;48.008;10.882;2023-07-13T08:22:45;20.80;99.90
32476;DHT22;18929;48.008;10.882;2023-07-13T08:25:13;20.90;99.90
32476;DHT22;18929;48.008;10.882;2023-07-13T08:27:40;21.00;99.90
32476;DHT22;18929;48.008;10.882;2023-07-13T08:30:07;21.00;99.90
32476;DHT22;18929;48.008;10.882;2023-07-13T08:32:37;21.20;99.90
32476;DHT22;18929;48.008;10.882;2023-07-13T08:35:04;21.10;99.90
32476;DHT22;18929;48.008;10.882;2023-07-13T08:37:32;21.10;99.90
32476;DHT22;18929;48.008;10.882;2023-07-13T08:39:59;20.90;99.90
32476;DHT22;18929;48.008;10.882;2023-07-13T08:42:29;20.90;99.90
32476;DHT22;18929;48.008;10.882;2023-07-13T08:45:02;20.50;99.90
32476;DHT22;18929;48.008;10.882;2023-07-13T08:47:31;20.80;99.90
32476;DHT22;18929;48.008;10.882;2023-07-13T08:50:01;21.00;99.90
32476;DHT22;18929;48.008;10.882;2023-07-13T08:52:30;20.90;99.90
32476;DHT22;18929;48.008;10.882;2023-07-13T08:54:58;21.00;99.90
32476;DHT22;18929;48.008;10.882;2023-07-13T08:57:31;20.90;99.90
32476;DHT22;18929;48.008;10.882;2023-07-13T09:00:02;21.00;99.90
32476;DHT22;18929;48.008;10.882;2023-07-13T09:02:34;21.00;99.90
32476;DHT22;18929;48.008;10.882;2023-07-13T09:05:08;20.90;99.90
32476;DHT22;18929;48.008;10.882;2023-07-13T09:07:40;20.80;99.90
32476;DHT22;18929;48.008;10.882;2023-07-13T09:10:11;20.50;99.90
32476;DHT22;18929;48.008;10.882;2023-07-13T09:12:45;20.70;99.90
32476;DHT22;18929;48.008;10.882;2023-07-13T09:15:24;20.80;99.90
32476;DHT22;18929;48.008;10.882;2023-07-13T09:17:52;20.90;99.90
32476;DHT22;18929;48.008;10.882;2023-07-13T09:20:23;20.90;99.90
32476;DHT22;18929;48.008;10.882;2023-07-13T09:22:51;20.90;99.90
32476;DHT22;18929;48.008;10.882;2023-07-13T09:25:22;20.90;99.90
32476;DHT22;18929;48.008;10.882;2023-07-13T09:27:50;21.00;99.90
32476;DHT22;18929;48.008;10.882;2023-07-13T09:30:24;20.80;99.90
32476;DHT22;18929;48.008;10.882;2023-07-13T09:32:53;20.90;99.90
32476;DHT22;18929;48.008;10.882;2023-07-13T09:35:24;20.90;99.90
32476;DHT22;18929;48.008;10.882;2023-07-13T09:37:57;20.80;99.90
32476;DHT22;18929;48.008;10.882;2023-07-13T09:40:25;21.20;99.90
32476;DHT22;18929;48.008;10.882;2023-07-13T09:42:54;21.10;99.90
32476;DHT22;18929;48.008;10.882;2023-07-13T09:45:27;21.20;99.90
32476;DHT22;18929;48.008;10.882;2023-07-13T09:47:58;20.90;99.90
32476;DHT22;18929;48.008;10.882;2023-07-13T09:50:27;21.10;99.90
32476;DHT22;18929;48.008;10.882;2023-07-13T09:52:54;21.10;99.90
32476;DHT22;18929;48.008;10.882;2023-07-13T09:55:25;21.50;99.90
32476;DHT22;18929;48.008;10.882;2023-07-13T09:57:53;21.30;99.90
32476;DHT22;18929;48.008;10.882;2023-07-13T10:00:21;21.60;99.90
32476;DHT22;18929;48.008;10.882;2023-07-13T10:02:50;21.60;99.90
32476;DHT22;18929;48.008;10.882;2023-07-13T10:05:25;21.70;99.90
32476;DHT22;18929;48.008;10.882;2023-07-13T10:07:53;21.50;99.90
32476;DHT22;18929;48.008;10.882;2023-07-13T10:10:22;21.60;99.90
32476;DHT22;18929;48.008;10.882;2023-07-13T10:12:50;21.50;99.90
32476;DHT22;18929;48.008;10.882;2023-07-13T10:15:18;21.60;99.90
32476;DHT22;18929;48.008;10.882;2023-07-13T10:17:46;21.40;99.90
32476;DHT22;18929;48.008;10.882;2023-07-13T10:20:13;21.40;99.90
32476;DHT22;18929;48.008;10.882;2023-07-13T10:22:43;21.30;99.90
32476;DHT22;18929;48.008;10.882;2023-07-13T10:25:15;21.10;99.90
32476;DHT22;18929;48.008;10.882;2023-07-13T10:27:44;21.30;99.90
32476;DHT22;18929;48.008;10.882;2023-07-13T10:30:12;20.90;99.90
32476;DHT22;18929;48.008;10.882;2023-07-13T10:32:40;21.30;99.90
32476;DHT22;18929;48.008;10.882;2023-07-13T10:35:15;21.40;99.90
32476;DHT22;18929;48.008;10.882;2023-07-13T10:37:45;21.80;99.90
32476;DHT22;18929;48.008;10.882;2023-07-13T10:40:16;21.80;99.90
32476;DHT22;18929;48.008;10.882;2023-07-13T10:42:45;21.90;99.90
32476;DHT22;18929;48.008;10.882;2023-07-13T10:45:14;21.90;99.90
32476;DHT22;18929;48.008;10.882;2023-07-13T10:47:42;21.50;99.90
32476;DHT22;18929;48.008;10.882;2023-07-13T10:50:12;21.80;99.90
32476;DHT22;18929;48.008;10.882;2023-07-13T10:52:42;22.10;99.90
32476;DHT22;18929;48.008;10.882;2023-07-13T10:55:36;21.90;99.90
32476;DHT22;18929;48.008;10.882;2023-07-13T10:58:08;22.30;99.90
32476;DHT22;18929;48.008;10.882;2023-07-13T11:00:43;22.10;99.90
32476;DHT22;18929;48.008;10.882;2023-07-13T11:03:10;22.40;99.90
32476;DHT22;18929;48.008;10.882;2023-07-13T11:05:40;22.20;99.90
32476;DHT22;18929;48.008;10.882;2023-07-13T11:08:13;21.80;99.90
32476;DHT22;18929;48.008;10.882;2023-07-13T11:10:47;22.10;99.90
32476;DHT22;18929;48.008;10.882;2023-07-13T11:15:57;21.60;99.90
32476;DHT22;18929;48.008;10.882;2023-07-13T11:18:24;21.60;99.90
32476;DHT22;18929;48.008;10.882;2023-07-13T11:20:52;21.60;99.90
32476;DHT22;18929;48.008;10.882;2023-07-13T11:23:20;21.20;99.90
32476;DHT22;18929;48.008;10.882;2023-07-13T11:25:55;21.80;99.90
32476;DHT22;18929;48.008;10.882;2023-07-13T11:28:23;21.90;99.90
32476;DHT22;18929;48.008;10.882;2023-07-13T11:31:01;22.00;99.90
32476;DHT22;18929;48.008;10.882;2023-07-13T11:33:31;21.80;99.90
32476;DHT22;18929;48.008;10.882;2023-07-13T11:36:13;21.50;99.90
32476;DHT22;18929;48.008;10.882;2023-07-13T11:38:41;21.70;99.90
32476;DHT22;18929;48.008;10.882;2023-07-13T11:41:13;21.80;99.90
32476;DHT22;18929;48.008;10.882;2023-07-13T11:43:41;21.90;99.90
32476;DHT22;18929;48.008;10.882;2023-07-13T11:46:12;22.20;99.90
32476;DHT22;18929;48.008;10.882;2023-07-13T11:48:40;22.30;99.90
32476;DHT22;18929;48.008;10.882;2023-07-13T11:51:09;22.10;99.90
32476;DHT22;18929;48.008;10.882;2023-07-13T11:53:43;22.30;99.90
32476;DHT22;18929;48.008;10.882;2023-07-13T11:56:13;21.80;99.90
32476;DHT22;18929;48.008;10.882;2023-07-13T11:58:40;21.90;99.90
32476;DHT22;18929;48.008;10.882;2023-07-13T12:01:10;21.90;99.90
32476;DHT22;18929;48.008;10.882;2023-07-13T12:03:41;22.20;99.90
32476;DHT22;18929;48.008;10.882;2023-07-13T12:06:23;22.10;99.90
32476;DHT22;18929;48.008;10.882;2023-07-13T12:08:51;22.00;99.90
32476;DHT22;18929;48.008;10.882;2023-07-13T12:11:20;20.70;99.90
32476;DHT22;18929;48.008;10.882;2023-07-13T12:13:47;20.10;99.90
32476;DHT22;18929;48.008;10.882;2023-07-13T12:16:26;20.60;99.90
32476;DHT22;18929;48.008;10.882;2023-07-13T12:18:54;21.20;99.90
32476;DHT22;18929;48.008;10.882;2023-07-13T12:21:23;21.50;99.90
32476;DHT22;18929;48.008;10.882;2023-07-13T12:23:52;21.30;99.90
32476;DHT22;18929;48.008;10.882;2023-07-13T12:26:20;21.50;99.90
32476;DHT22;18929;48.008;10.882;2023-07-13T12:28:48;21.90;99.90
32476;DHT22;18929;48.008;10.882;2023-07-13T12:31:23;21.40;99.90
32476;DHT22;18929;48.008;10.882;2023-07-13T12:33:55;21.20;99.90
32476;DHT22;18929;48.008;10.882;2023-07-13T12:36:23;21.20;99.90
32476;DHT22;18929;48.008;10.882;2023-07-13T12:38:50;21.80;99.90
32476;DHT22;18929;48.008;10.882;2023-07-13T12:41:17;22.10;99.90
32476;DHT22;18929;48.008;10.882;2023-07-13T12:43:46;22.10;99.90
32476;DHT22;18929;48.008;10.882;2023-07-13T12:46:16;22.50;99.90
32476;DHT22;18929;48.008;10.882;2023-07-13T12:48:44;21.80;99.90
32476;DHT22;18929;48.008;10.882;2023-07-13T12:51:11;21.10;99.90
32476;DHT22;18929;48.008;10.882;2023-07-13T12:53:40;21.80;99.90
32476;DHT22;18929;48.008;10.882;2023-07-13T12:56:08;22.40;99.90
32476;DHT22;18929;48.008;10.882;2023-07-13T12:58:39;22.60;99.90
32476;DHT22;18929;48.008;10.882;2023-07-13T13:01:13;22.80;99.90
32476;DHT22;18929;48.008;10.882;2023-07-13T13:03:45;21.50;99.90
32476;DHT22;18929;48.008;10.882;2023-07-13T13:06:20;21.50;99.90
32476;DHT22;18929;48.008;10.882;2023-07-13T13:08:48;21.40;99.90
32476;DHT22;18929;48.008;10.882;2023-07-13T13:11:15;21.20;99.90
32476;DHT22;18929;48.008;10.882;2023-07-13T13:13:42;21.00;99.90
32476;DHT22;18929;48.008;10.882;2023-07-13T13:16:09;21.80;99.90
32476;DHT22;18929;48.008;10.882;2023-07-13T13:18:40;21.80;99.90
32476;DHT22;18929;48.008;10.882;2023-07-13T13:21:08;22.50;99.90
32476;DHT22;18929;48.008;10.882;2023-07-13T13:23:35;23.00;99.90
32476;DHT22;18929;48.008;10.882;2023-07-13T13:26:02;22.50;99.90
32476;DHT22;18929;48.008;10.882;2023-07-13T13:28:31;22.80;99.90
32476;DHT22;18929;48.008;10.882;2023-07-13T13:30:58;23.00;99.90
32476;DHT22;18929;48.008;10.882;2023-07-13T13:33:26;21.80;99.90
32476;DHT22;18929;48.008;10.882;2023-07-13T13:35:54;21.80;99.90
32476;DHT22;18929;48.008;10.882;2023-07-13T13:38:23;21.70;99.90
32476;DHT22;18929;48.008;10.882;2023-07-13T13:40:51;21.40;99.90
32476;DHT22;18929;48.008;10.882;2023-07-13T13:43:18;22.50;99.90
32476;DHT22;18929;48.008;10.882;2023-07-13T13:45:46;23.10;99.90
32476;DHT22;18929;48.008;10.882;2023-07-13T13:48:26;23.60;99.90
32476;DHT22;18929;48.008;10.882;2023-07-13T13:50:58;23.70;99.90
32476;DHT22;18929;48.008;10.882;2023-07-13T13:53:26;23.40;99.90
32476;DHT22;18929;48.008;10.882;2023-07-13T13:55:53;22.40;99.90
32476;DHT22;18929;48.008;10.882;2023-07-13T13:58:21;23.00;99.90
32476;DHT22;18929;48.008;10.882;2023-07-13T14:00:48;22.80;99.90
32476;DHT22;18929;48.008;10.882;2023-07-13T14:03:16;23.30;99.90
32476;DHT22;18929;48.008;10.882;2023-07-13T14:05:44;24.00;99.90
32476;DHT22;18929;48.008;10.882;2023-07-13T14:08:13;24.30;99.90
32476;DHT22;18929;48.008;10.882;2023-07-13T14:10:41;24.10;99.90
32476;DHT22;18929;48.008;10.882;2023-07-13T14:13:14;24.30;99.70
32476;DHT22;18929;48.008;10.882;2023-07-13T14:15:43;24.10;99.10
32476;DHT22;18929;48.008;10.882;2023-07-13T14:18:11;24.10;99.90
32476;DHT22;18929;48.008;10.882;2023-07-13T14:20:43;24.10;99.90
32476;DHT22;18929;48.008;10.882;2023-07-13T14:23:10;24.10;98.70
32476;DHT22;18929;48.008;10.882;2023-07-13T14:25:39;23.80;99.90
32476;DHT22;18929;48.008;10.882;2023-07-13T14:28:11;24.00;99.90
32476;DHT22;18929;48.008;10.882;2023-07-13T14:30:41;24.10;99.90
32476;DHT22;18929;48.008;10.882;2023-07-13T14:33:08;23.60;99.00
32476;DHT22;18929;48.008;10.882;2023-07-13T14:35:35;22.60;99.90
32476;DHT22;18929;48.008;10.882;2023-07-13T14:38:03;23.00;99.50
32476;DHT22;18929;48.008;10.882;2023-07-13T14:40:31;24.30;99.60
32476;DHT22;18929;48.008;10.882;2023-07-13T14:43:00;26.40;96.00
32476;DHT22;18929;48.008;10.882;2023-07-13T14:45:27;27.40;96.80
32476;DHT22;18929;48.008;10.882;2023-07-13T14:47:55;27.30;95.40
32476;DHT22;18929;48.008;10.882;2023-07-13T14:50:24;27.90;96.10
32476;DHT22;18929;48.008;10.882;2023-07-13T14:52:53;28.10;95.10
32476;DHT22;18929;48.008;10.882;2023-07-13T14:55:20;27.20;96.90
32476;DHT22;18929;48.008;10.882;2023-07-13T14:57:47;25.80;95.50
32476;DHT22;18929;48.008;10.882;2023-07-13T15:00:18;27.00;97.40
32476;DHT22;18929;48.008;10.882;2023-07-13T15:02:47;27.60;96.60
32476;DHT22;18929;48.008;10.882;2023-07-13T15:05:15;27.40;96.30
32476;DHT22;18929;48.008;10.882;2023-07-13T15:07:42;25.50;97.00
32476;DHT22;18929;48.008;10.882;2023-07-13T15:10:13;25.00;99.50
32476;DHT22;18929;48.008;10.882;2023-07-13T15:12:41;24.60;96.40
32476;DHT22;18929;48.008;10.882;2023-07-13T15:15:08;26.40;98.50
32476;DHT22;18929;48.008;10.882;2023-07-13T15:17:37;26.40;93.50
32476;DHT22;18929;48.008;10.882;2023-07-13T15:20:06;27.40;96.80
32476;DHT22;18929;48.008;10.882;2023-07-13T15:22:39;27.30;95.60
32476;DHT22;18929;48.008;10.882;2023-07-13T15:25:07;27.70;94.90
32476;DHT22;18929;48.008;10.882;2023-07-13T15:27:38;27.90;96.20
32476;DHT22;18929;48.008;10.882;2023-07-13T15:30:06;28.10;95.90
32476;DHT22;18929;48.008;10.882;2023-07-13T15:32:33;27.90;95.70
32476;DHT22;18929;48.008;10.882;2023-07-13T15:35:01;27.00;97.10